Time;durP1;ratioP1;P1;durP2;ratioP2;P2;SDS_P1;SDS_P2;PMS_P1;PMS_P2;Temp;Humidity;BMP_temperature;BMP_pressure;BME280_temperature;BME280_humidity;BME280_pressure;Samples;Min_cycle;Max_cycle;Signal;HPM_P1;HPM_P2
2023/04/19 00:01:53;;;;;;;7.30;6.60;;;;;;;12.44;54.35;98600.66;8279218;28;20226;-70
2023/04/19 00:05:59;;;;;;;7.03;6.40;;;;;;;12.35;54.26;98588.91;8278408;28;20235;-70
2023/04/19 00:10:02;;;;;;;8.07;7.37;;;;;;;12.32;54.78;98597.66;8278829;28;20249;-69
2023/04/19 00:14:06;;;;;;;7.50;6.80;;;;;;;12.36;54.59;98598.41;8278648;28;20223;-70
2023/04/19 00:18:09;;;;;;;7.57;6.87;;;;;;;12.24;55.15;98578.97;8278542;28;20242;-69
2023/04/19 00:22:12;;;;;;;7.90;7.10;;;;;;;12.41;54.68;98590.41;8278841;28;20513;-69
2023/04/19 00:26:15;;;;;;;7.13;6.43;;;;;;;12.39;55.09;98587.03;8278781;28;20230;-70
2023/04/19 00:30:20;;;;;;;7.60;6.90;;;;;;;12.45;54.79;98582.44;8278260;28;20238;-70
2023/04/19 00:34:23;;;;;;;8.30;6.07;;;;;;;12.46;54.72;98570.28;8280847;28;20231;-70
2023/04/19 00:38:26;;;;;;;7.47;6.60;;;;;;;12.37;55.06;98568.91;8284577;28;20412;-70
2023/04/19 00:42:29;;;;;;;7.70;6.97;;;;;;;12.23;55.45;98561.69;8284904;28;20259;-70
2023/04/19 00:46:33;;;;;;;6.83;6.23;;;;;;;12.44;55.21;98569.50;8284717;28;20333;-70
2023/04/19 00:50:36;;;;;;;7.43;6.77;;;;;;;12.46;55.31;98572.88;8284123;28;20235;-69
2023/04/19 00:54:40;;;;;;;7.30;6.60;;;;;;;12.43;55.23;98563.47;8284475;28;20234;-69
2023/04/19 00:58:43;;;;;;;7.30;6.60;;;;;;;12.54;55.19;98565.59;8284343;28;20487;-70
2023/04/19 01:02:47;;;;;;;7.20;6.50;;;;;;;12.38;55.10;98555.00;8284013;28;20223;-70
2023/04/19 01:06:51;;;;;;;7.43;6.77;;;;;;;12.20;55.45;98537.59;8284097;28;20232;-70
2023/04/19 01:10:53;;;;;;;7.50;6.80;;;;;;;12.20;55.88;98551.41;8284273;28;20231;-70
2023/04/19 01:14:57;;;;;;;7.47;6.77;;;;;;;12.12;55.42;98545.72;8283861;28;20227;-70
2023/04/19 01:19:01;;;;;;;7.40;6.80;;;;;;;12.22;55.60;98551.38;8283661;28;20254;-70
2023/04/19 01:23:05;;;;;;;7.20;6.60;;;;;;;12.04;55.19;98534.81;8283037;28;20542;-69
2023/04/19 01:27:08;;;;;;;7.60;6.90;;;;;;;12.09;55.41;98541.50;8282701;28;20234;-69
2023/04/19 01:31:11;;;;;;;7.73;6.93;;;;;;;12.10;55.30;98545.75;8283067;28;20473;-70
2023/04/19 01:35:14;;;;;;;7.73;7.10;;;;;;;12.01;55.25;98532.31;8283057;28;20231;-70
2023/04/19 01:39:18;;;;;;;8.03;7.20;;;;;;;12.04;55.26;98529.63;8282810;28;20310;-69
2023/04/19 01:43:21;;;;;;;7.77;6.83;;;;;;;11.95;55.62;98543.81;8282767;28;20241;-70
2023/04/19 01:47:24;;;;;;;8.23;7.53;;;;;;;11.87;55.88;98530.28;8281299;28;20318;-70
2023/04/19 01:51:27;;;;;;;8.30;7.50;;;;;;;12.00;55.65;98526.28;8282175;28;20227;-69
2023/04/19 01:55:31;;;;;;;8.13;7.33;;;;;;;11.89;55.64;98513.75;8282299;28;20237;-69
2023/04/19 01:59:34;;;;;;;8.40;7.60;;;;;;;11.99;55.79;98518.56;8282753;28;20231;-69
2023/04/19 02:03:37;;;;;;;8.27;7.47;;;;;;;11.90;56.22;98523.25;8281999;28;20254;-70
2023/04/19 02:07:41;;;;;;;8.47;7.40;;;;;;;11.91;56.31;98521.47;8282054;28;20282;-69
2023/04/19 02:11:46;;;;;;;8.13;7.33;;;;;;;11.37;55.89;98425.06;8282113;28;20424;-69
2023/04/19 02:15:49;;;;;;;8.43;7.63;;;;;;;11.92;56.23;98513.63;8282029;28;20249;-69
2023/04/19 02:19:52;;;;;;;8.10;7.40;;;;;;;11.78;56.64;98483.94;8282056;28;20223;-69
2023/04/19 02:23:55;;;;;;;7.80;7.20;;;;;;;11.91;56.69;98490.34;8281625;28;20507;-70
2023/04/19 02:27:59;;;;;;;8.87;8.00;;;;;;;11.92;56.57;98497.22;8281368;28;20231;-69
2023/04/19 02:32:04;;;;;;;7.90;7.17;;;;;;;11.93;56.55;98493.72;8281378;28;20281;-70
2023/04/19 02:36:08;;;;;;;8.37;7.60;;;;;;;11.91;56.79;98479.94;8281223;28;20250;-69
2023/04/19 02:40:12;;;;;;;8.00;7.30;;;;;;;11.87;56.73;98478.38;8281128;28;20235;-69
2023/04/19 02:44:16;;;;;;;8.73;7.90;;;;;;;11.82;56.92;98475.97;8281493;28;20415;-69
2023/04/19 02:48:19;;;;;;;7.63;6.87;;;;;;;11.76;57.14;98465.81;8281225;28;20246;-70
2023/04/19 02:52:22;;;;;;;8.47;7.20;;;;;;;11.72;56.89;98477.25;8280888;28;20234;-69
2023/04/19 02:56:25;;;;;;;8.07;7.33;;;;;;;11.64;57.16;98472.38;8280646;28;20239;-70
2023/04/19 03:00:29;;;;;;;8.77;7.87;;;;;;;11.73;56.95;98471.16;8280660;28;20233;-69
2023/04/19 03:04:31;;;;;;;7.90;7.20;;;;;;;11.73;56.70;98468.56;8280320;28;20238;-69
2023/04/19 03:08:35;;;;;;;8.30;7.50;;;;;;;11.79;56.16;98465.72;8280454;28;20308;-69
2023/04/19 03:12:37;;;;;;;8.13;7.33;;;;;;;11.78;56.54;98457.97;8280002;28;20269;-69
2023/04/19 03:16:45;;;;;;;8.73;7.90;;;;;;;11.69;56.25;98459.19;8280065;28;20233;-69
2023/04/19 03:20:49;;;;;;;8.90;7.37;;;;;;;11.63;56.58;98447.34;8279940;28;20494;-69
2023/04/19 03:24:52;;;;;;;8.20;7.50;;;;;;;11.61;56.33;98443.09;8279748;28;20242;-69
2023/04/19 03:28:55;;;;;;;8.30;7.50;;;;;;;11.61;56.59;98438.75;8280066;28;20234;-70
2023/04/19 03:32:59;;;;;;;8.47;7.67;;;;;;;11.49;56.88;98441.84;8279859;28;20397;-69
2023/04/19 03:37:02;;;;;;;8.67;7.77;;;;;;;11.44;57.06;98438.59;8280027;28;20231;-69
2023/04/19 03:41:05;;;;;;;8.60;7.80;;;;;;;11.44;57.37;98431.69;8281554;28;20448;-70
2023/04/19 03:45:09;;;;;;;9.10;8.03;;;;;;;11.45;57.86;98419.56;8281514;28;20238;-70
2023/04/19 03:49:13;;;;;;;8.93;8.13;;;;;;;11.40;57.42;98421.47;8281624;28;20404;-69
2023/04/19 03:53:17;;;;;;;9.17;8.27;;;;;;;10.92;58.23;98358.56;8281544;28;20219;-69
2023/04/19 03:57:21;;;;;;;8.90;8.00;;;;;;;11.29;58.32;98417.59;8280740;28;20246;-70
2023/04/19 04:01:24;;;;;;;10.00;9.10;;;;;;;11.30;58.51;98408.88;8281108;28;20231;-70
2023/04/19 04:05:28;;;;;;;10.17;9.17;;;;;;;11.25;58.70;98410.84;8280935;28;20254;-69
2023/04/19 04:09:31;;;;;;;10.23;9.23;;;;;;;11.32;58.46;98411.41;8280337;28;20223;-69
2023/04/19 04:13:34;;;;;;;11.00;9.90;;;;;;;11.25;58.65;98404.78;8281255;28;20238;-69
2023/04/19 04:17:37;;;;;;;9.80;8.83;;;;;;;11.41;58.50;98415.41;8279315;28;20247;-69
2023/04/19 04:21:41;;;;;;;11.33;9.80;;;;;;;11.34;58.90;98394.03;8280446;28;20227;-70
2023/04/19 04:25:45;;;;;;;11.53;9.90;;;;;;;11.53;59.29;98413.13;8280475;28;20277;-70
2023/04/19 04:29:48;;;;;;;10.83;9.80;;;;;;;11.63;59.48;98413.63;8280858;28;20234;-69
2023/04/19 04:33:52;;;;;;;11.43;10.33;;;;;;;11.68;59.25;98403.03;8280625;28;20333;-71
2023/04/19 04:37:56;;;;;;;11.20;10.10;;;;;;;11.63;59.52;98416.22;8280463;28;20230;-70
2023/04/19 04:41:59;;;;;;;11.57;10.37;;;;;;;11.66;59.42;98404.84;8280588;28;20235;-69
2023/04/19 04:46:02;;;;;;;12.37;11.07;;;;;;;11.63;59.40;98400.66;8270441;28;20526;-69
2023/04/19 04:50:07;;;;;;;10.93;9.83;;;;;;;11.79;59.21;98400.00;8279805;28;20227;-69
2023/04/19 04:54:11;;;;;;;10.43;9.43;;;;;;;11.84;59.29;98400.63;8280468;28;20227;-69
2023/04/19 04:58:13;;;;;;;10.97;9.63;;;;;;;11.84;59.43;98405.81;8280374;28;20399;-71
2023/04/19 05:02:17;;;;;;;11.33;10.10;;;;;;;11.95;59.13;98400.22;8280056;28;20227;-71
2023/04/19 05:06:20;;;;;;;12.70;10.73;;;;;;;11.87;59.83;98409.13;8279667;28;20250;-71
2023/04/19 05:10:24;;;;;;;11.77;10.00;;;;;;;11.92;59.79;98404.63;8279971;28;20235;-72
2023/04/19 05:14:27;;;;;;;12.17;10.97;;;;;;;11.96;60.26;98404.50;8279808;28;20242;-72
2023/04/19 05:18:29;;;;;;;11.27;10.07;;;;;;;12.05;60.39;98410.16;8279987;28;20231;-72
2023/04/19 05:22:32;;;;;;;11.50;10.30;;;;;;;12.01;61.61;98408.56;8283709;28;20250;-73
2023/04/19 05:26:38;;;;;;;12.07;10.87;;;;;;;10.84;61.39;98200.84;8285791;28;20554;-69
2023/04/19 05:30:40;;;;;;;12.03;10.67;;;;;;;12.22;61.83;98399.03;8285347;28;20227;-69
2023/04/19 05:34:43;;;;;;;11.97;10.77;;;;;;;12.24;62.19;98393.75;8285463;28;20242;-68
2023/04/19 05:38:46;;;;;;;13.53;12.23;;;;;;;12.02;63.38;98393.84;8285447;28;20227;-68
2023/04/19 05:42:50;;;;;;;13.03;11.63;;;;;;;12.23;62.75;98387.72;8285235;28;20420;-69
2023/04/19 05:46:52;;;;;;;13.13;11.77;;;;;;;12.38;62.53;98385.34;8285038;28;20445;-68
2023/04/19 05:50:56;;;;;;;13.43;11.90;;;;;;;12.39;62.45;98379.22;8285156;28;20610;-69
2023/04/19 05:55:00;;;;;;;13.70;12.40;;;;;;;12.34;62.97;98387.25;8284885;28;20281;-69
2023/04/19 05:59:05;;;;;;;13.93;12.53;;;;;;;12.54;62.15;98380.31;8284308;28;20437;-69
2023/04/19 06:03:08;;;;;;;13.80;12.50;;;;;;;12.47;62.44;98378.00;8284276;28;20259;-69
2023/04/19 06:07:11;;;;;;;13.30;11.93;;;;;;;12.66;61.87;98372.78;8284379;28;20289;-68
2023/04/19 06:11:33;;;;;;;27.10;22.73;;;;;;;12.60;62.09;98377.41;8284173;28;20226;-69
2023/04/19 06:15:52;;;;;;;16.30;14.60;;;;;;;12.74;61.85;98381.97;8284473;28;20231;-69
2023/04/19 06:19:55;;;;;;;18.00;16.10;;;;;;;12.67;62.06;98379.66;8284079;28;20427;-69
2023/04/19 06:23:58;;;;;;;14.13;12.63;;;;;;;12.65;61.45;98355.50;8284391;28;20489;-69
2023/04/19 06:28:01;;;;;;;14.20;12.80;;;;;;;12.00;62.74;98281.47;8283918;28;20228;-67
2023/04/19 06:32:06;;;;;;;15.73;14.23;;;;;;;12.64;62.10;98381.56;8283124;28;20231;-67
2023/04/19 06:36:12;;;;;;;15.53;13.93;;;;;;;12.69;62.20;98379.59;8283555;28;20258;-67
2023/04/19 06:40:14;;;;;;;16.60;14.80;;;;;;;12.54;62.75;98362.94;8283304;28;20232;-66
2023/04/19 06:44:17;;;;;;;15.97;14.47;;;;;;;12.63;62.07;98354.72;8282880;28;20223;-69
2023/04/19 06:48:22;;;;;;;16.63;14.83;;;;;;;12.76;61.93;98369.78;8283039;28;20234;-67
2023/04/19 06:52:25;;;;;;;16.63;14.97;;;;;;;12.99;61.23;98364.31;8283120;28;20235;-68
2023/04/19 06:56:44;;;;;;;17.93;16.13;;;;;;;12.77;61.92;98361.03;8283087;28;20234;-68
2023/04/19 07:00:46;;;;;;;16.57;14.93;;;;;;;12.96;61.40;98356.66;8282537;28;20416;-68
2023/04/19 07:04:51;;;;;;;16.27;14.67;;;;;;;12.99;61.33;98360.88;8282509;28;20295;-68
2023/04/19 07:08:53;;;;;;;17.80;15.80;;;;;;;13.00;61.69;98350.38;8282650;28;20227;-68
2023/04/19 07:12:56;;;;;;;15.93;14.23;;;;;;;13.11;60.98;98350.72;8282400;28;20234;-68
2023/04/19 07:16:59;;;;;;;17.43;15.60;;;;;;;12.91;61.61;98330.06;8282436;28;20230;-68
2023/04/19 07:21:04;;;;;;;17.90;15.60;;;;;;;12.92;61.51;98342.13;8282114;28;20235;-68
2023/04/19 07:25:08;;;;;;;6.27;5.67;;;;;;;14.75;74.21;98337.13;8282178;28;20236;-69
2023/04/19 07:29:11;;;;;;;20.30;18.23;;;;;;;14.44;59.74;98344.81;8281952;28;20229;-71
2023/04/19 07:33:14;;;;;;;20.10;17.67;;;;;;;13.44;58.89;98343.97;8281769;28;20422;-70
2023/04/19 07:37:19;;;;;;;19.07;17.17;;;;;;;13.28;59.83;98351.66;8281506;28;20301;-71
2023/04/19 07:41:22;;;;;;;18.27;16.37;;;;;;;13.16;59.45;98329.69;8281635;28;20236;-70
2023/04/19 07:45:25;;;;;;;20.07;17.97;;;;;;;12.92;58.84;98347.31;8281018;28;20240;-70
2023/04/19 07:49:32;;;;;;;20.97;16.47;;;;;;;13.08;59.43;98344.84;8281444;28;20228;-70
2023/04/19 07:53:38;;;;;;;21.63;19.03;;;;;;;13.02;58.55;98342.50;8281414;28;20256;-69
2023/04/19 07:57:44;;;;;;;18.73;16.83;;;;;;;13.02;58.94;98345.97;8280659;28;20232;-71
2023/04/19 08:01:47;;;;;;;17.33;15.63;;;;;;;13.03;59.83;98344.22;8280939;28;20225;-71
2023/04/19 08:05:50;;;;;;;17.77;15.87;;;;;;;12.62;62.09;98337.47;8280614;28;20228;-71
2023/04/19 08:09:57;;;;;;;17.40;15.70;;;;;;;12.93;61.38;98342.94;8280481;28;20408;-71
2023/04/19 08:14:02;;;;;;;15.70;14.20;;;;;;;12.86;61.56;98337.22;8280209;28;20239;-71
2023/04/19 08:18:25;;;;;;;16.47;14.80;;;;;;;12.70;61.36;98344.91;8280089;28;20570;-71
2023/04/19 08:22:28;;;;;;;15.77;14.10;;;;;;;12.90;60.89;98344.78;8280876;28;20223;-70
2023/04/19 08:26:32;;;;;;;14.37;13.00;;;;;;;12.62;60.85;98353.06;8280662;28;20242;-71
2023/04/19 08:30:35;;;;;;;15.13;13.57;;;;;;;12.54;60.92;98349.13;8279913;28;20266;-71
2023/04/19 08:34:39;;;;;;;13.53;12.30;;;;;;;12.54;59.83;98313.59;8279753;28;20227;-71
2023/04/19 08:38:42;;;;;;;12.17;10.97;;;;;;;12.65;59.11;98352.91;8279897;28;20389;-71
2023/04/19 08:42:52;;;;;;;11.43;10.30;;;;;;;12.45;59.12;98348.66;8279932;28;20528;-71
2023/04/19 08:46:57;;;;;;;11.70;10.70;;;;;;;12.33;59.62;98352.63;8279397;28;20227;-71
2023/04/19 08:51:00;;;;;;;10.97;9.97;;;;;;;12.51;58.05;98352.72;8279332;28;20223;-71
2023/04/19 08:55:11;;;;;;;10.63;9.57;;;;;;;12.86;57.71;98361.44;8281512;28;20323;-72
2023/04/19 08:59:15;;;;;;;11.37;10.30;;;;;;;12.73;57.46;98360.34;8285803;28;20234;-72
2023/04/19 09:03:21;;;;;;;11.10;9.97;;;;;;;12.78;57.79;98353.19;8285058;28;20238;-72
2023/04/19 09:07:25;;;;;;;9.60;8.70;;;;;;;12.71;56.42;98351.78;8285757;28;20583;-71
2023/04/19 09:11:36;;;;;;;10.27;9.17;;;;;;;12.67;56.48;98342.44;8285619;28;20234;-72
2023/04/19 09:15:43;;;;;;;9.27;8.47;;;;;;;12.53;56.24;98335.31;8285181;28;20227;-72
2023/04/19 09:19:46;;;;;;;9.10;8.17;;;;;;;12.50;56.08;98333.66;8284419;28;20558;-72
2023/04/19 09:23:49;;;;;;;9.23;8.33;;;;;;;12.67;55.52;98325.09;8285420;28;20231;-72
2023/04/19 09:27:52;;;;;;;8.97;8.17;;;;;;;12.33;55.72;98334.44;8284905;28;20371;-72
2023/04/19 09:31:59;;;;;;;9.23;8.33;;;;;;;11.57;55.61;98211.53;8284779;28;20253;-72
2023/04/19 09:36:03;;;;;;;9.40;8.50;;;;;;;12.42;54.53;98324.56;8284608;28;20506;-72
2023/04/19 09:40:24;;;;;;;9.53;8.67;;;;;;;12.43;54.51;98313.25;8284567;28;20254;-72
2023/04/19 09:44:27;;;;;;;9.13;8.23;;;;;;;13.05;53.01;98311.19;8283125;28;20235;-72
2023/04/19 09:48:35;;;;;;;9.60;8.33;;;;;;;13.32;52.34;98318.56;8283380;28;20442;-72
2023/04/19 09:52:38;;;;;;;9.70;8.23;;;;;;;13.66;51.65;98317.69;8282446;28;20235;-72
2023/04/19 09:56:42;;;;;;;9.00;8.10;;;;;;;13.81;51.79;98311.69;8282764;28;20303;-72
2023/04/19 10:00:46;;;;;;;8.97;8.07;;;;;;;13.89;50.70;98287.88;8282625;28;20236;-71
2023/04/19 10:04:58;;;;;;;8.43;7.63;;;;;;;14.48;49.93;98302.03;8283311;28;20529;-71
2023/04/19 10:09:21;;;;;;;8.80;7.87;;;;;;;14.60;48.31;98311.00;8280498;28;20359;-72
2023/04/19 10:13:24;;;;;;;8.47;7.70;;;;;;;14.51;48.63;98302.78;8282367;28;20549;-72
2023/04/19 10:17:31;;;;;;;10.30;8.07;;;;;;;14.31;48.24;98290.88;8281766;28;20234;-72
2023/04/19 10:21:37;;;;;;;8.80;7.90;;;;;;;14.01;48.20;98284.63;8281727;28;20245;-71
2023/04/19 10:25:39;;;;;;;8.97;8.07;;;;;;;14.89;46.80;98285.06;8281890;28;20230;-71
2023/04/19 10:29:55;;;;;;;8.47;7.67;;;;;;;16.39;42.53;98266.53;8270534;28;20236;-71
2023/04/19 10:33:58;;;;;;;8.10;7.30;;;;;;;15.56;43.67;98272.47;8281266;28;20560;-71
2023/04/19 10:38:07;;;;;;;9.60;7.93;;;;;;;14.90;44.72;98252.00;8281629;28;20334;-70
2023/04/19 10:42:11;;;;;;;8.30;7.37;;;;;;;14.92;43.68;98266.63;8281600;28;20561;-70
2023/04/19 10:46:39;;;;;;;6.93;6.30;;;;;;;15.18;41.31;98259.06;8280711;28;20239;-71
2023/04/19 10:50:58;;;;;;;6.40;5.80;;;;;;;15.79;38.82;98239.75;8280812;28;20223;-70
2023/04/19 10:55:04;;;;;;;6.70;6.00;;;;;;;16.01;40.10;98246.25;8281130;28;20539;-71
2023/04/19 10:59:23;;;;;;;8.47;7.57;;;;;;;15.26;42.15;98241.19;8281488;28;20389;-70
2023/04/19 11:03:52;;;;;;;7.90;7.10;;;;;;;17.23;38.33;98236.72;8279723;28;20548;-71
2023/04/19 11:07:56;;;;;;;9.27;7.20;;;;;;;17.08;39.59;98235.13;8267531;28;20257;-71
2023/04/19 11:12:02;;;;;;;7.47;6.47;;;;;;;16.23;39.84;98203.97;8280527;28;20441;-71
2023/04/19 11:16:07;;;;;;;6.33;5.60;;;;;;;16.91;37.82;98231.00;8279889;28;20264;-72
2023/04/19 11:20:13;;;;;;;6.47;5.50;;;;;;;17.64;35.68;98214.72;8279671;28;20558;-71
2023/04/19 11:24:17;;;;;;;5.93;5.23;;;;;;;17.00;35.60;98205.06;8279108;28;20494;-72
2023/04/19 11:28:22;;;;;;;7.87;5.20;;;;;;;17.89;34.99;98199.94;8279088;28;20329;-72
2023/04/19 11:32:26;;;;;;;4.63;4.23;;;;;;;17.32;34.86;98194.19;8279992;28;20402;-71
2023/04/19 11:36:31;;;;;;;6.60;4.70;;;;;;;17.83;34.54;98195.94;8278937;28;20245;-71
2023/04/19 11:40:36;;;;;;;5.43;4.87;;;;;;;18.51;33.98;98189.34;8279671;28;20414;-71
2023/04/19 11:44:40;;;;;;;4.97;3.63;;;;;;;19.60;32.25;98177.66;8279298;28;20230;-71
2023/04/19 11:48:50;;;;;;;4.63;3.73;;;;;;;18.73;31.51;98094.16;8279051;28;20227;-71
2023/04/19 11:52:53;;;;;;;4.90;3.40;;;;;;;18.61;31.49;98170.31;8278963;28;20262;-71
2023/04/19 11:57:03;;;;;;;3.77;2.80;;;;;;;19.56;29.61;98167.53;8279622;28;20537;-72
2023/04/19 12:01:08;;;;;;;4.73;2.83;;;;;;;19.48;30.80;98157.63;8278984;28;20242;-72
2023/04/19 12:05:13;;;;;;;2.43;2.20;;;;;;;19.98;27.26;98152.81;8278362;28;20231;-72
2023/04/19 12:09:21;;;;;;;2.57;1.93;;;;;;;20.07;26.51;98159.97;8279090;28;20255;-71
2023/04/19 12:13:26;;;;;;;3.30;1.80;;;;;;;19.99;25.85;98144.00;8278393;28;20239;-71
2023/04/19 12:17:30;;;;;;;1.60;1.50;;;;;;;19.79;25.39;98152.63;8279390;28;20238;-73
2023/04/19 12:21:33;;;;;;;2.17;1.50;;;;;;;19.82;23.36;98147.97;8278967;28;20258;-70
2023/04/19 12:25:36;;;;;;;1.93;1.73;;;;;;;20.06;24.85;98141.69;8279145;28;20233;-70
2023/04/19 12:29:39;;;;;;;2.00;1.60;;;;;;;19.06;24.09;97979.72;8280250;28;20253;-70
2023/04/19 12:33:48;;;;;;;2.83;1.40;;;;;;;19.89;25.01;98140.41;8285988;28;20540;-70
2023/04/19 12:37:52;;;;;;;1.90;1.60;;;;;;;19.34;25.05;98133.28;8286088;28;20233;-70
2023/04/19 12:41:55;;;;;;;2.27;1.83;;;;;;;20.39;25.67;98146.00;8285977;28;20560;-70
2023/04/19 12:45:58;;;;;;;1.83;1.73;;;;;;;19.75;24.91;98114.41;8285347;28;20227;-70
2023/04/19 12:50:02;;;;;;;2.47;1.70;;;;;;;20.77;24.55;98126.25;8285186;28;20332;-71
2023/04/19 12:54:06;;;;;;;2.17;1.50;;;;;;;19.49;25.33;98128.59;8285146;28;20236;-71
2023/04/19 12:58:09;;;;;;;3.27;2.00;;;;;;;19.22;25.18;98126.31;8284927;28;20231;-72
2023/04/19 13:02:12;;;;;;;1.60;1.50;;;;;;;20.21;24.99;98131.72;8284749;28;20456;-71
2023/04/19 13:06:16;;;;;;;2.20;1.47;;;;;;;19.60;23.45;98124.31;8284394;28;20512;-72
2023/04/19 13:10:19;;;;;;;1.77;1.37;;;;;;;19.71;22.44;98127.75;8283861;28;20229;-70
2023/04/19 13:14:23;;;;;;;1.63;1.43;;;;;;;19.49;22.49;98101.50;8284078;28;20229;-70
2023/04/19 13:18:25;;;;;;;1.47;1.30;;;;;;;19.21;22.52;98060.81;8266508;28;20246;-70
2023/04/19 13:22:30;;;;;;;1.40;1.30;;;;;;;19.75;22.07;98123.13;8283690;28;20239;-70
2023/04/19 13:26:34;;;;;;;1.40;1.30;;;;;;;19.68;22.87;98122.72;8283402;28;20459;-70
2023/04/19 13:30:37;;;;;;;1.50;1.40;;;;;;;20.00;22.37;98121.16;8283468;28;20232;-71
2023/04/19 13:34:40;;;;;;;2.07;1.40;;;;;;;20.39;21.96;98122.34;8283515;28;20227;-69
2023/04/19 13:38:44;;;;;;;1.40;1.30;;;;;;;18.95;23.65;98121.41;8283845;28;20529;-69
2023/04/19 13:42:47;;;;;;;1.80;1.60;;;;;;;18.93;23.06;98116.28;8282216;28;20233;-69
2023/04/19 13:46:50;;;;;;;3.67;1.90;;;;;;;19.32;23.49;98106.31;8283589;28;20475;-69
2023/04/19 13:50:53;;;;;;;1.87;1.40;;;;;;;19.65;22.87;98111.66;8283920;28;20297;-69
2023/04/19 13:54:58;;;;;;;2.03;1.83;;;;;;;18.94;23.52;98114.47;8284124;28;20506;-69
2023/04/19 13:59:00;;;;;;;3.90;1.90;;;;;;;18.28;25.08;98040.78;8283685;28;20224;-69
2023/04/19 14:03:04;;;;;;;2.10;2.00;;;;;;;17.54;25.65;98119.41;8283418;28;20247;-69
2023/04/19 14:07:07;;;;;;;1.80;1.70;;;;;;;17.12;27.05;98124.91;8283638;28;20227;-69
2023/04/19 14:11:13;;;;;;;3.03;1.97;;;;;;;16.87;27.07;98114.44;8283275;28;20240;-69
2023/04/19 14:15:17;;;;;;;3.13;2.23;;;;;;;15.71;28.35;98106.22;8282702;28;20533;-69
2023/04/19 14:19:20;;;;;;;2.00;1.90;;;;;;;16.03;27.65;98125.09;8282478;28;20226;-69
2023/04/19 14:23:23;;;;;;;2.33;1.93;;;;;;;16.81;28.14;98120.88;8282099;28;20238;-69
2023/04/19 14:27:27;;;;;;;2.77;1.77;;;;;;;16.47;27.17;98124.91;8282139;28;20237;-70
2023/04/19 14:31:30;;;;;;;2.50;2.30;;;;;;;15.29;27.58;98016.66;8282058;28;20238;-69
2023/04/19 14:35:35;;;;;;;4.73;2.67;;;;;;;15.95;28.01;98121.28;8281985;28;20551;-69
2023/04/19 14:39:37;;;;;;;2.67;2.20;;;;;;;15.85;27.95;98121.03;8281791;28;20544;-69
2023/04/19 14:43:42;;;;;;;2.83;2.00;;;;;;;15.85;28.50;98104.53;8281695;28;20238;-70
2023/04/19 14:47:45;;;;;;;2.40;2.20;;;;;;;15.63;28.97;98121.50;8281372;28;20230;-70
2023/04/19 14:51:48;;;;;;;2.43;1.97;;;;;;;15.39;28.19;98092.56;8281578;28;20653;-70
2023/04/19 14:55:51;;;;;;;2.33;2.00;;;;;;;15.35;28.37;98111.97;8280949;28;20228;-71
2023/04/19 14:59:57;;;;;;;2.30;2.10;;;;;;;15.28;28.17;98101.03;8281293;28;20382;-70
2023/04/19 15:04:00;;;;;;;4.03;2.00;;;;;;;15.86;28.17;98108.81;8280959;28;20301;-71
2023/04/19 15:08:05;;;;;;;2.30;2.10;;;;;;;16.49;28.71;98094.31;8281206;28;20228;-70
2023/04/19 15:12:16;;;;;;;2.03;1.83;;;;;;;16.27;28.30;98080.00;8281108;28;20250;-70
2023/04/19 15:16:20;;;;;;;3.67;1.97;;;;;;;16.37;27.94;98096.78;8280322;28;20237;-71
2023/04/19 15:20:23;;;;;;;2.03;1.77;;;;;;;16.41;28.01;98098.25;8280667;28;20257;-71
2023/04/19 15:24:26;;;;;;;2.10;1.80;;;;;;;16.22;28.60;98096.00;8280484;28;20236;-70
2023/04/19 15:28:29;;;;;;;2.07;1.80;;;;;;;15.42;29.02;98069.75;8280498;28;20237;-70
2023/04/19 15:32:35;;;;;;;3.33;1.90;;;;;;;15.79;29.30;98106.59;8280543;28;20232;-70
2023/04/19 15:36:39;;;;;;;2.80;1.70;;;;;;;15.18;29.42;98110.38;8280768;28;20230;-70
2023/04/19 15:40:42;;;;;;;2.50;2.20;;;;;;;15.43;28.38;98101.88;8280472;28;20235;-70
2023/04/19 15:44:45;;;;;;;2.17;1.77;;;;;;;15.76;29.18;98104.19;8280436;28;20230;-70
2023/04/19 15:48:49;;;;;;;1.90;1.67;;;;;;;15.73;29.46;98111.34;8280237;28;20226;-70
2023/04/19 15:52:52;;;;;;;2.90;1.80;;;;;;;15.87;28.77;98106.09;8279938;28;20419;-70
2023/04/19 15:56:54;;;;;;;2.00;1.80;;;;;;;15.69;29.41;98089.81;8280310;28;20235;-70
2023/04/19 16:00:59;;;;;;;4.03;2.10;;;;;;;16.07;29.31;98097.00;8279824;28;20239;-70
2023/04/19 16:05:03;;;;;;;4.03;2.03;;;;;;;16.04;29.46;98097.19;8279242;28;20236;-69
2023/04/19 16:09:07;;;;;;;3.77;1.70;;;;;;;15.63;27.92;98103.22;8281297;28;20231;-70
2023/04/19 16:13:12;;;;;;;2.70;1.50;;;;;;;15.67;27.83;98107.34;8281447;28;20225;-70
2023/04/19 16:17:15;;;;;;;2.40;2.00;;;;;;;15.70;28.45;98096.69;8281238;28;20233;-69
2023/04/19 16:21:19;;;;;;;2.77;1.87;;;;;;;15.23;28.10;98110.91;8280729;28;20308;-71
2023/04/19 16:25:22;;;;;;;2.30;2.10;;;;;;;15.57;28.87;98106.22;8280693;28;20574;-70
2023/04/19 16:29:24;;;;;;;3.30;2.00;;;;;;;15.31;28.49;98108.69;8281010;28;20237;-70
2023/04/19 16:33:27;;;;;;;3.33;1.93;;;;;;;14.32;27.84;98016.41;8281019;28;20256;-69
2023/04/19 16:37:32;;;;;;;1.97;1.87;;;;;;;14.69;28.36;98106.31;8280733;28;20231;-69
2023/04/19 16:41:35;;;;;;;2.10;1.90;;;;;;;14.84;28.19;98109.78;8280618;28;20450;-69
2023/04/19 16:45:38;;;;;;;2.33;1.90;;;;;;;14.74;28.68;98104.28;8280645;28;20278;-69
2023/04/19 16:49:40;;;;;;;2.73;1.90;;;;;;;14.99;29.16;98103.66;8280836;28;20231;-69
2023/04/19 16:53:46;;;;;;;2.67;1.90;;;;;;;14.72;29.77;98093.13;8280834;28;20243;-69
2023/04/19 16:57:49;;;;;;;3.43;2.03;;;;;;;14.64;29.57;98085.75;8280797;28;20230;-69
2023/04/19 17:01:54;;;;;;;2.20;2.10;;;;;;;14.81;29.92;98089.97;8280250;28;20257;-73
2023/04/19 17:06:02;;;;;;;3.43;2.17;;;;;;;14.96;30.53;98084.75;8280416;28;20226;-74
2023/04/19 17:10:08;;;;;;;2.80;2.23;;;;;;;14.75;31.35;98094.69;8280656;28;20430;-74
2023/04/19 17:14:10;;;;;;;146.73;69.30;;;;;;;14.90;34.14;98096.38;8280273;28;20234;-73
2023/04/19 17:18:13;;;;;;;47.90;25.60;;;;;;;14.17;34.46;98091.91;8285065;28;20529;-72
2023/04/19 17:22:18;;;;;;;34.17;20.67;;;;;;;14.13;34.37;98095.63;8285531;28;20227;-73
2023/04/19 17:26:23;;;;;;;106.90;56.70;;;;;;;14.44;36.86;98101.69;8285910;28;20238;-72
2023/04/19 17:30:26;;;;;;;10.20;6.57;;;;;;;14.23;34.15;98103.75;8286004;28;20240;-72
2023/04/19 17:34:28;;;;;;;6.57;5.00;;;;;;;14.50;33.58;98101.31;8285875;28;20240;-73
2023/04/19 17:38:32;;;;;;;12.40;7.37;;;;;;;14.70;33.93;98108.00;8285662;28;20540;-73
2023/04/19 17:42:36;;;;;;;7.77;5.73;;;;;;;14.22;34.15;98102.06;8285659;28;20262;-75
2023/04/19 17:46:39;;;;;;;3.00;2.70;;;;;;;13.82;33.43;98105.16;8285504;28;20230;-75
2023/04/19 17:50:42;;;;;;;3.50;2.50;;;;;;;13.50;34.03;98091.31;8285286;28;20398;-74
2023/04/19 17:54:44;;;;;;;3.17;2.63;;;;;;;13.58;33.79;98101.28;8285241;28;20254;-75
2023/04/19 17:58:49;;;;;;;3.50;2.60;;;;;;;13.39;34.45;98101.44;8284645;28;20226;-75
2023/04/19 18:02:52;;;;;;;34.90;25.43;;;;;;;13.73;36.47;98108.25;8284770;28;20441;-69
2023/04/19 18:06:55;;;;;;;3.00;2.67;;;;;;;13.54;34.83;98105.00;8284837;28;20229;-69
2023/04/19 18:10:58;;;;;;;3.53;2.57;;;;;;;13.51;35.31;98110.34;8284853;28;20233;-69
2023/04/19 18:15:02;;;;;;;3.10;2.80;;;;;;;13.40;35.58;98111.78;8284572;28;20527;-69
2023/04/19 18:19:05;;;;;;;6.07;5.00;;;;;;;13.30;36.05;98121.81;8284207;28;20233;-69
2023/04/19 18:23:08;;;;;;;3.43;3.13;;;;;;;13.23;36.71;98109.16;8283873;28;20242;-69
2023/04/19 18:27:11;;;;;;;2.90;2.67;;;;;;;13.44;36.48;98118.50;8283353;28;20235;-70
2023/04/19 18:31:15;;;;;;;4.07;3.40;;;;;;;13.23;35.96;98115.25;8284119;28;20569;-70
2023/04/19 18:35:18;;;;;;;6.33;3.80;;;;;;;13.29;36.89;98114.06;8283442;28;20228;-73
2023/04/19 18:39:21;;;;;;;6.63;4.77;;;;;;;13.15;37.06;98116.53;8282643;28;20234;-70
2023/04/19 18:43:24;;;;;;;2.73;2.53;;;;;;;13.05;36.94;98116.19;8283394;28;20239;-73
2023/04/19 18:47:30;;;;;;;53.70;35.37;;;;;;;14.50;68.34;98126.53;8282802;28;20237;-71
2023/04/19 18:51:33;;;;;;;42.77;28.27;;;;;;;15.14;64.19;98112.34;8283354;28;20235;-70
2023/04/19 18:55:36;;;;;;;27.23;17.67;;;;;;;15.51;52.55;98128.34;8283376;28;20228;-70
2023/04/19 18:59:39;;;;;;;18.20;11.43;;;;;;;15.67;49.48;98123.00;8283352;28;20230;-70
2023/04/19 19:03:44;;;;;;;9.07;7.00;;;;;;;14.31;37.26;98124.16;8282788;28;20234;-72